Time;durP1;ratioP1;P1;durP2;ratioP2;P2;SDS_P1;SDS_P2;PMS_P1;PMS_P2;Temp;Humidity;BMP_temperature;BMP_pressure;BME280_temperature;BME280_humidity;BME280_pressure;Samples;Min_cycle;Max_cycle;Signal;HPM_P1;HPM_P2
2023/04/21 04:01:12;;;;;;;4.97;4.47;;;7.70;81.60;;;;;;5715608;23;20501;-73
2023/04/21 04:03:38;;;;;;;5.20;4.70;;;7.60;81.70;;;;;;4994730;28;20504;-74
2023/04/21 04:06:05;;;;;;;4.70;4.30;;;7.70;81.70;;;;;;4994502;28;20503;-74
2023/04/21 04:08:32;;;;;;;5.17;4.77;;;7.70;81.60;;;;;;4994387;28;20935;-73
2023/04/21 04:10:59;;;;;;;4.80;4.40;;;7.70;81.60;;;;;;4993919;28;20871;-74
2023/04/21 04:13:26;;;;;;;4.70;4.20;;;7.70;81.50;;;;;;4994971;28;20485;-74
2023/04/21 04:15:53;;;;;;;4.60;4.20;;;7.60;81.30;;;;;;4994355;28;20453;-74
2023/04/21 04:18:21;;;;;;;3.70;3.40;;;7.50;81.00;;;;;;4994198;28;20449;-74
2023/04/21 04:20:48;;;;;;;4.43;4.03;;;7.50;80.80;;;;;;4994140;28;20628;-75
2023/04/21 04:23:15;;;;;;;5.00;4.60;;;7.50;81.00;;;;;;4994966;28;20450;-74
2023/04/21 04:25:41;;;;;;;4.47;4.07;;;7.50;80.90;;;;;;4994051;28;20453;-74
2023/04/21 04:28:08;;;;;;;3.70;3.40;;;7.50;80.80;;;;;;4994069;28;20508;-74
2023/04/21 04:30:35;;;;;;;4.60;4.20;;;7.40;80.50;;;;;;4994060;28;20507;-74
2023/04/21 04:33:02;;;;;;;3.90;3.60;;;7.40;80.80;;;;;;4993923;28;20531;-74
2023/04/21 04:35:30;;;;;;;4.00;3.60;;;7.40;81.00;;;;;;4993546;28;20450;-74
2023/04/21 04:37:57;;;;;;;5.50;5.00;;;7.40;81.40;;;;;;4993595;28;20947;-75
2023/04/21 04:40:24;;;;;;;4.50;4.10;;;7.40;81.70;;;;;;4993866;28;20453;-74
2023/04/21 04:42:51;;;;;;;4.57;4.17;;;7.40;81.80;;;;;;4994586;28;20446;-74
2023/04/21 04:45:20;;;;;;;4.13;3.73;;;7.40;81.70;;;;;;4993817;28;20449;-74
2023/04/21 04:47:47;;;;;;;4.47;4.07;;;7.50;81.80;;;;;;4993811;28;20454;-74
2023/04/21 04:50:14;;;;;;;5.13;4.67;;;7.50;82.00;;;;;;4993776;28;20496;-74
2023/04/21 04:52:45;;;;;;;6.03;5.50;;;7.60;82.00;;;;;;4993683;28;20485;-74
2023/04/21 04:55:12;;;;;;;6.13;5.63;;;7.60;82.50;;;;;;4993785;28;20460;-75
2023/04/21 04:57:39;;;;;;;6.50;5.90;;;7.60;82.50;;;;;;4993741;28;20449;-74
2023/04/21 05:00:10;;;;;;;5.70;5.20;;;7.60;82.70;;;;;;4993650;28;20479;-74
2023/04/21 05:02:37;;;;;;;5.60;5.10;;;7.70;82.70;;;;;;4993298;28;20854;-74
2023/04/21 05:05:05;;;;;;;6.57;5.97;;;7.80;82.70;;;;;;4994237;28;20454;-74
2023/04/21 05:07:31;;;;;;;7.50;6.80;;;7.80;82.80;;;;;;4993595;28;20497;-74
2023/04/21 05:09:59;;;;;;;6.60;6.10;;;7.80;82.90;;;;;;4993593;28;20453;-74
2023/04/21 05:12:26;;;;;;;8.10;7.43;;;7.90;82.90;;;;;;4993089;28;20481;-74
2023/04/21 05:14:53;;;;;;;7.20;6.50;;;7.90;82.80;;;;;;4993519;28;20461;-74
2023/04/21 05:17:19;;;;;;;7.00;6.40;;;8.00;82.70;;;;;;4993569;28;20457;-75
2023/04/21 05:19:46;;;;;;;7.13;6.53;;;8.00;82.70;;;;;;4993240;28;20965;-75
2023/04/21 05:22:12;;;;;;;7.40;6.80;;;7.90;82.90;;;;;;4993254;28;20461;-75
2023/04/21 05:24:41;;;;;;;6.93;6.07;;;8.00;82.80;;;;;;4993455;28;20829;-75
2023/04/21 05:27:09;;;;;;;6.33;5.83;;;8.10;82.30;;;;;;4993417;28;20458;-75
2023/04/21 05:29:36;;;;;;;6.60;6.00;;;8.00;82.10;;;;;;4993124;28;20903;-75
2023/04/21 05:32:03;;;;;;;7.00;6.40;;;8.00;82.30;;;;;;4993198;28;20465;-74
2023/04/21 05:34:29;;;;;;;6.80;6.20;;;8.10;81.90;;;;;;4993272;28;20452;-74
2023/04/21 05:36:56;;;;;;;7.67;7.03;;;8.10;81.90;;;;;;4993087;28;20528;-75
2023/04/21 05:39:23;;;;;;;6.87;6.27;;;8.10;81.90;;;;;;4993784;28;20449;-74
2023/04/21 05:41:49;;;;;;;7.00;6.40;;;8.10;82.10;;;;;;4993189;28;20465;-74
2023/04/21 05:44:17;;;;;;;7.73;7.03;;;8.10;82.50;;;;;;4993220;28;20445;-74
2023/04/21 05:46:44;;;;;;;7.47;6.87;;;8.10;82.50;;;;;;4996642;28;20453;-75
2023/04/21 05:49:11;;;;;;;8.00;7.20;;;8.10;82.50;;;;;;4997109;28;20449;-75
2023/04/21 05:51:37;;;;;;;7.73;7.03;;;8.20;82.30;;;;;;4997098;28;20911;-75
2023/04/21 05:54:04;;;;;;;8.77;8.07;;;8.10;82.50;;;;;;4996860;28;20536;-75
2023/04/21 05:56:31;;;;;;;7.97;7.27;;;8.10;82.60;;;;;;4997037;28;20452;-75
2023/04/21 05:58:57;;;;;;;7.70;7.00;;;8.20;82.70;;;;;;4996957;28;20453;-75
2023/04/21 06:01:25;;;;;;;8.37;7.57;;;8.30;82.70;;;;;;4996482;28;20900;-75
2023/04/21 06:03:52;;;;;;;12.97;7.50;;;8.30;82.80;;;;;;4996545;28;20847;-74
2023/04/21 06:06:19;;;;;;;8.33;7.63;;;8.40;83.20;;;;;;4996881;28;20452;-74
2023/04/21 06:08:45;;;;;;;7.83;7.13;;;8.30;83.30;;;;;;4996777;28;20449;-75
2023/04/21 06:11:12;;;;;;;8.13;7.33;;;8.50;83.50;;;;;;4996500;28;20539;-75
2023/04/21 06:13:39;;;;;;;8.00;7.30;;;8.70;83.20;;;;;;4996674;28;20540;-75
2023/04/21 06:16:06;;;;;;;8.43;7.70;;;8.80;82.70;;;;;;4996660;28;20449;-74
2023/04/21 06:18:34;;;;;;;7.10;6.50;;;8.90;83.40;;;;;;4996631;28;20445;-75
2023/04/21 06:21:00;;;;;;;7.80;7.07;;;8.80;83.60;;;;;;4996341;28;20473;-75
2023/04/21 06:23:27;;;;;;;8.10;7.40;;;9.00;83.50;;;;;;4996554;28;20523;-75
2023/04/21 06:26:03;;;;;;;7.50;6.80;;;9.30;83.70;;;;;;4996092;28;20955;-75
2023/04/21 06:28:29;;;;;;;6.67;6.10;;;9.50;82.60;;;;;;4996392;28;20484;-74
2023/04/21 06:30:56;;;;;;;6.30;5.80;;;9.60;81.10;;;;;;4996326;28;20457;-75
2023/04/21 06:33:23;;;;;;;6.47;5.93;;;9.70;80.10;;;;;;4995953;28;21004;-75
2023/04/21 06:35:51;;;;;;;6.20;5.60;;;9.70;80.20;;;;;;4996348;28;20448;-73
2023/04/21 06:38:17;;;;;;;6.40;5.80;;;9.80;80.10;;;;;;4996184;28;20456;-76
2023/04/21 06:40:44;;;;;;;6.77;6.20;;;9.90;80.10;;;;;;4996214;28;20502;-75
2023/04/21 06:43:11;;;;;;;7.60;6.03;;;9.90;79.80;;;;;;4996314;28;20450;-75
2023/04/21 06:45:37;;;;;;;6.93;6.23;;;9.90;80.00;;;;;;4996399;28;20511;-76
2023/04/21 06:48:04;;;;;;;7.30;6.70;;;9.60;80.50;;;;;;4996265;28;20441;-74
2023/04/21 06:50:31;;;;;;;7.53;6.87;;;9.60;81.00;;;;;;4996097;28;20519;-76
2023/04/21 06:52:59;;;;;;;8.40;7.70;;;9.50;81.00;;;;;;4996235;28;20481;-75
2023/04/21 06:55:26;;;;;;;7.97;7.37;;;9.50;81.20;;;;;;4996266;28;20504;-75
2023/04/21 06:57:53;;;;;;;7.60;6.93;;;9.50;81.30;;;;;;4995454;28;20441;-74
2023/04/21 07:00:20;;;;;;;7.93;7.23;;;9.60;81.50;;;;;;4996117;28;20847;-75
2023/04/21 07:02:46;;;;;;;8.20;7.40;;;9.60;81.90;;;;;;4995809;28;20461;-75
2023/04/21 07:05:13;;;;;;;7.97;7.27;;;9.70;82.40;;;;;;4996643;28;20449;-76
2023/04/21 07:07:40;;;;;;;7.30;6.73;;;9.90;83.20;;;;;;4996098;28;20445;-74
2023/04/21 07:10:09;;;;;;;8.07;7.37;;;10.10;82.30;;;;;;4996041;28;20450;-74
2023/04/21 07:12:36;;;;;;;7.50;6.90;;;10.20;81.40;;;;;;4995763;28;20531;-74
2023/04/21 07:15:03;;;;;;;7.50;6.90;;;10.40;81.20;;;;;;4995805;28;20544;-74
2023/04/21 07:17:30;;;;;;;7.53;6.83;;;10.50;80.20;;;;;;4995586;28;20504;-74
2023/04/21 07:19:56;;;;;;;7.70;7.00;;;10.50;79.30;;;;;;4995970;28;20515;-75
2023/04/21 07:22:23;;;;;;;7.20;6.60;;;10.00;79.90;;;;;;4995741;28;20473;-75
2023/04/21 07:24:50;;;;;;;6.80;6.20;;;9.80;81.20;;;;;;4995536;28;20860;-74
2023/04/21 07:27:18;;;;;;;7.23;6.53;;;9.60;82.00;;;;;;4995862;28;20804;-74
2023/04/21 07:29:45;;;;;;;6.87;6.30;;;9.70;83.00;;;;;;4995663;28;20449;-75
2023/04/21 07:32:12;;;;;;;7.90;7.20;;;10.00;82.70;;;;;;4995568;28;20522;-75
2023/04/21 07:34:38;;;;;;;7.67;7.00;;;10.30;82.20;;;;;;4995404;28;20547;-74
2023/04/21 07:37:05;;;;;;;7.23;6.63;;;10.50;81.50;;;;;;4996019;28;20519;-76
2023/04/21 07:39:32;;;;;;;6.63;6.03;;;10.30;81.50;;;;;;4995297;28;20508;-75
2023/04/21 07:41:58;;;;;;;7.03;6.33;;;10.10;81.10;;;;;;4995438;28;20477;-74
2023/04/21 07:44:28;;;;;;;8.60;7.80;;;10.10;82.60;;;;;;4995553;28;20449;-75
2023/04/21 07:46:54;;;;;;;7.27;6.60;;;10.20;81.60;;;;;;4995375;28;20449;-76
2023/04/21 07:49:21;;;;;;;6.47;5.87;;;10.10;82.00;;;;;;4995426;28;20453;-76
2023/04/21 07:51:48;;;;;;;6.87;6.27;;;10.20;82.40;;;;;;4995553;28;20813;-75
2023/04/21 07:54:14;;;;;;;5.87;5.40;;;10.30;82.20;;;;;;4995075;28;20476;-74
2023/04/21 07:56:41;;;;;;;6.90;6.30;;;10.20;81.70;;;;;;4995202;28;20461;-75
2023/04/21 07:59:08;;;;;;;5.30;4.80;;;10.50;81.50;;;;;;4995167;28;20886;-74
2023/04/21 08:01:36;;;;;;;5.70;5.17;;;10.90;80.50;;;;;;4995773;28;20994;-75
2023/04/21 08:04:02;;;;;;;4.80;4.40;;;11.00;78.60;;;;;;4995979;28;20452;-75
2023/04/21 08:06:29;;;;;;;5.03;4.63;;;11.30;80.40;;;;;;4996068;28;20523;-75
2023/04/21 08:08:56;;;;;;;5.37;4.87;;;11.50;79.80;;;;;;4995435;28;20441;-75
2023/04/21 08:11:22;;;;;;;5.07;4.67;;;11.50;78.30;;;;;;4995712;28;20476;-73
2023/04/21 08:13:50;;;;;;;4.93;4.13;;;11.60;78.20;;;;;;4995796;28;20559;-75
2023/04/21 08:16:17;;;;;;;3.90;3.57;;;11.70;76.90;;;;;;4996303;28;20453;-76
2023/04/21 08:18:45;;;;;;;5.47;4.97;;;11.70;77.80;;;;;;4997179;28;20453;-75
2023/04/21 08:21:11;;;;;;;4.27;3.87;;;11.80;76.90;;;;;;4995365;28;20532;-76
2023/04/21 08:23:38;;;;;;;4.57;4.10;;;12.00;76.80;;;;;;4994443;28;20445;-74
2023/04/21 08:26:05;;;;;;;4.60;4.20;;;12.10;77.70;;;;;;4994283;28;20475;-76
2023/04/21 08:28:31;;;;;;;5.27;4.80;;;11.90;76.50;;;;;;4994384;28;20453;-76
2023/04/21 08:30:59;;;;;;;4.90;4.50;;;11.80;78.00;;;;;;4994466;28;20465;-75
2023/04/21 08:33:25;;;;;;;5.57;5.13;;;11.80;78.30;;;;;;4994184;28;20481;-75
2023/04/21 08:35:53;;;;;;;5.00;4.60;;;11.90;78.50;;;;;;4994347;28;20457;-76
2023/04/21 08:38:20;;;;;;;4.57;4.17;;;12.20;77.90;;;;;;4994317;28;20856;-74
2023/04/21 08:40:48;;;;;;;3.57;3.27;;;12.20;78.30;;;;;;4993921;28;20469;-75
2023/04/21 08:43:15;;;;;;;3.77;3.37;;;12.10;76.50;;;;;;4994213;28;20446;-75
2023/04/21 08:45:43;;;;;;;4.00;3.60;;;12.10;76.70;;;;;;4994220;28;20595;-74
2023/04/21 08:48:17;;;;;;;4.50;4.10;;;12.20;77.00;;;;;;4994225;28;20445;-75
2023/04/21 08:50:45;;;;;;;4.30;3.90;;;12.20;75.80;;;;;;4994087;28;20466;-74
2023/04/21 08:53:14;;;;;;;4.23;3.83;;;12.20;77.00;;;;;;4993851;28;20963;-75
2023/04/21 08:55:42;;;;;;;4.33;3.43;;;12.00;76.90;;;;;;4994703;28;20532;-74
2023/04/21 08:58:09;;;;;;;4.33;3.93;;;11.90;77.30;;;;;;4994404;28;20453;-74
2023/04/21 09:00:35;;;;;;;5.13;4.63;;;12.10;78.30;;;;;;4993925;28;20453;-76
2023/04/21 09:03:03;;;;;;;4.30;3.90;;;12.20;77.60;;;;;;4993924;28;20808;-74
2023/04/21 09:05:31;;;;;;;3.97;3.57;;;12.30;77.60;;;;;;4994288;28;20466;-74
2023/04/21 09:08:09;;;;;;;3.70;3.37;;;12.30;76.90;;;;;;4994047;28;20564;-74
2023/04/21 09:10:45;;;;;;;4.60;4.20;;;12.50;75.70;;;;;;4994037;28;20442;-75
2023/04/21 09:13:12;;;;;;;4.20;3.80;;;12.40;76.40;;;;;;4994036;28;20536;-75
2023/04/21 09:15:40;;;;;;;4.37;3.30;;;12.60;75.50;;;;;;4994034;28;20453;-74
2023/04/21 09:18:12;;;;;;;4.23;3.83;;;12.90;76.00;;;;;;4995413;28;20454;-75
2023/04/21 09:20:39;;;;;;;4.43;4.03;;;13.10;76.90;;;;;;4994822;28;20571;-75
2023/04/21 09:23:06;;;;;;;3.70;3.37;;;13.20;75.50;;;;;;4995601;28;20524;-77
2023/04/21 09:25:33;;;;;;;4.27;3.87;;;13.40;74.90;;;;;;4995373;28;20481;-76
2023/04/21 09:28:01;;;;;;;4.13;3.73;;;13.50;74.60;;;;;;4995371;28;20504;-76
2023/04/21 09:30:28;;;;;;;4.10;3.70;;;13.70;73.80;;;;;;4995469;28;20449;-76
2023/04/21 09:32:57;;;;;;;4.20;3.50;;;13.70;74.00;;;;;;4995354;28;20453;-76
2023/04/21 09:35:27;;;;;;;4.90;4.50;;;13.70;73.50;;;;;;4995138;28;20557;-76
2023/04/21 09:37:54;;;;;;;3.63;3.33;;;13.60;72.80;;;;;;4994608;28;20788;-78
2023/04/21 09:40:21;;;;;;;3.70;3.10;;;13.70;75.60;;;;;;4995715;28;20453;-77
2023/04/21 09:42:49;;;;;;;3.57;3.27;;;14.00;73.20;;;;;;4995883;28;20460;-76
2023/04/21 09:45:17;;;;;;;3.80;3.50;;;14.10;72.80;;;;;;4994852;28;20445;-75
2023/04/21 09:47:50;;;;;;;3.07;2.77;;;13.90;73.90;;;;;;4994836;28;20450;-75
2023/04/21 09:50:17;;;;;;;3.30;3.00;;;13.90;73.10;;;;;;4994772;28;20855;-75
2023/04/21 09:52:44;;;;;;;6.40;5.83;;;13.70;74.70;;;;;;4994700;28;20504;-78
2023/04/21 09:55:12;;;;;;;3.60;3.20;;;13.80;74.50;;;;;;4994972;28;20531;-75
2023/04/21 09:57:41;;;;;;;4.20;3.80;;;14.10;75.00;;;;;;4994019;28;20461;-75
2023/04/21 10:00:10;;;;;;;3.53;3.23;;;14.40;75.20;;;;;;4993945;28;20591;-76
2023/04/21 10:02:43;;;;;;;3.43;3.07;;;14.90;72.70;;;;;;4993297;28;20559;-75
2023/04/21 10:05:11;;;;;;;3.50;3.20;;;15.00;72.00;;;;;;4993732;28;20438;-76
2023/04/21 10:07:37;;;;;;;2.80;2.50;;;14.70;71.30;;;;;;4993333;28;20457;-75
2023/04/21 10:10:07;;;;;;;3.23;2.73;;;14.70;71.50;;;;;;4993809;28;20503;-76
2023/04/21 10:12:35;;;;;;;3.00;2.60;;;14.70;71.30;;;;;;4993757;28;20469;-76
2023/04/21 10:15:05;;;;;;;2.90;2.40;;;14.70;73.30;;;;;;4994173;28;20891;-76
2023/04/21 10:17:35;;;;;;;3.10;2.80;;;14.90;72.30;;;;;;4993951;28;20449;-76
2023/04/21 10:20:08;;;;;;;2.97;2.67;;;14.70;70.80;;;;;;4993721;28;20438;-76
2023/04/21 10:22:37;;;;;;;2.97;2.67;;;14.60;72.30;;;;;;4993642;28;20473;-76
2023/04/21 10:25:08;;;;;;;3.70;3.40;;;14.80;71.90;;;;;;4993777;28;20445;-77
2023/04/21 10:27:36;;;;;;;2.97;2.67;;;14.70;72.10;;;;;;4993625;28;20446;-76
2023/04/21 10:30:19;;;;;;;3.23;2.93;;;14.80;73.60;;;;;;4993387;28;20448;-77
2023/04/21 10:32:46;;;;;;;3.43;3.13;;;15.20;73.00;;;;;;4994877;28;20448;-76
2023/04/21 10:35:16;;;;;;;3.20;2.80;;;15.20;71.70;;;;;;4996379;28;21083;-76
2023/04/21 10:37:47;;;;;;;2.97;2.70;;;15.10;72.70;;;;;;4996852;28;20449;-76
2023/04/21 10:40:35;;;;;;;4.10;3.67;;;15.20;72.10;;;;;;4998208;28;20485;-76
2023/04/21 10:43:03;;;;;;;4.17;3.80;;;15.10;70.00;;;;;;4996593;28;20443;-76
2023/04/21 10:45:31;;;;;;;4.10;3.70;;;14.90;73.30;;;;;;4996569;28;20537;-76
2023/04/21 10:48:01;;;;;;;3.53;3.13;;;15.10;72.30;;;;;;4996526;28;20450;-76
2023/04/21 10:50:30;;;;;;;3.80;3.47;;;15.30;72.50;;;;;;4997285;28;20460;-76
2023/04/21 10:53:07;;;;;;;3.80;3.50;;;15.20;71.70;;;;;;4996619;28;20441;-76
2023/04/21 10:55:34;;;;;;;4.50;4.10;;;15.10;71.30;;;;;;4996555;28;20548;-76
2023/04/21 10:58:03;;;;;;;4.37;3.97;;;15.00;71.90;;;;;;4997527;28;20524;-76
2023/04/21 11:00:30;;;;;;;3.90;3.60;;;15.00;71.70;;;;;;4999239;28;20517;-76
2023/04/21 11:02:58;;;;;;;4.60;4.20;;;15.20;73.20;;;;;;4999616;28;20437;-76
2023/04/21 11:05:35;;;;;;;4.70;4.30;;;15.30;71.40;;;;;;4999825;28;20838;-76
2023/04/21 11:08:13;;;;;;;4.10;3.70;;;15.50;72.40;;;;;;4999008;28;20444;-77
2023/04/21 11:10:52;;;;;;;4.03;3.63;;;15.70;72.20;;;;;;4998778;28;20865;-76
2023/04/21 11:13:21;;;;;;;4.80;4.40;;;15.90;71.40;;;;;;5002240;28;20548;-75
2023/04/21 11:16:03;;;;;;;4.10;3.60;;;15.90;70.70;;;;;;5002971;28;20498;-75
2023/04/21 11:18:37;;;;;;;5.00;4.60;;;16.00;71.30;;;;;;5003041;28;20445;-77
2023/04/21 11:21:16;;;;;;;5.10;4.60;;;15.90;71.20;;;;;;5002819;28;20500;-75
2023/04/21 11:23:49;;;;;;;4.00;3.60;;;16.10;71.70;;;;;;5002446;28;20488;-77
2023/04/21 11:26:16;;;;;;;4.47;4.07;;;16.20;70.40;;;;;;5001960;28;20422;-75
2023/04/21 11:28:43;;;;;;;4.13;3.73;;;16.10;70.30;;;;;;4998969;28;20938;-77
2023/04/21 11:31:10;;;;;;;4.67;4.27;;;16.20;70.90;;;;;;4997200;28;20477;-76
2023/04/21 11:33:39;;;;;;;4.20;3.80;;;16.40;70.80;;;;;;4997534;28;20899;-75
2023/04/21 11:36:06;;;;;;;4.33;3.93;;;16.50;70.70;;;;;;4997041;28;20492;-76
2023/04/21 11:38:41;;;;;;;5.37;4.70;;;16.50;70.30;;;;;;4997433;28;20453;-76
2023/04/21 11:41:09;;;;;;;4.73;4.33;;;16.50;70.50;;;;;;4997526;28;20875;-76
2023/04/21 11:43:37;;;;;;;5.40;4.23;;;16.50;71.10;;;;;;4998436;28;20476;-76
2023/04/21 11:46:16;;;;;;;3.77;3.47;;;16.60;70.50;;;;;;4998925;28;20454;-75
2023/04/21 11:48:43;;;;;;;4.17;3.80;;;16.70;70.10;;;;;;4997302;28;20476;-76
2023/04/21 11:51:15;;;;;;;5.37;4.07;;;16.90;69.20;;;;;;4996689;28;21044;-76
2023/04/21 11:53:46;;;;;;;3.90;3.50;;;17.00;69.10;;;;;;4996572;28;20472;-77
2023/04/21 11:56:17;;;;;;;4.67;4.27;;;17.00;69.10;;;;;;4996710;28;20469;-77
2023/04/21 11:58:44;;;;;;;3.97;3.60;;;17.30;69.30;;;;;;4997495;28;20469;-75
2023/04/21 12:01:11;;;;;;;4.30;3.93;;;17.50;68.00;;;;;;4996253;28;20519;-77
2023/04/21 12:03:38;;;;;;;4.87;4.30;;;17.30;67.80;;;;;;4996333;28;20453;-75
2023/04/21 12:06:06;;;;;;;5.13;4.73;;;17.30;68.10;;;;;;4997391;28;20446;-76
2023/04/21 12:08:33;;;;;;;3.97;3.20;;;17.20;69.00;;;;;;4996667;28;20508;-75
2023/04/21 12:11:02;;;;;;;3.10;2.80;;;17.00;70.20;;;;;;4996333;28;20509;-76
2023/04/21 12:13:29;;;;;;;3.63;3.33;;;17.20;68.50;;;;;;4996599;28;20461;-76
2023/04/21 12:15:56;;;;;;;3.70;3.40;;;17.20;67.80;;;;;;4995936;28;20492;-74
2023/04/21 12:18:27;;;;;;;3.60;3.30;;;17.30;67.70;;;;;;4996310;28;20457;-77
2023/04/21 12:20:54;;;;;;;4.20;3.80;;;17.30;68.00;;;;;;4996399;28;20449;-76
2023/04/21 12:23:21;;;;;;;3.47;3.17;;;17.40;67.80;;;;;;4995858;28;20449;-76
2023/04/21 12:25:47;;;;;;;3.17;2.87;;;17.40;67.40;;;;;;4995730;28;20453;-75
2023/04/21 12:28:17;;;;;;;4.37;3.27;;;17.60;67.60;;;;;;4995844;28;20446;-76
2023/04/21 12:30:44;;;;;;;3.60;2.20;;;17.90;67.10;;;;;;4995571;28;20469;-75
2023/04/21 12:33:11;;;;;;;2.57;2.27;;;18.10;66.00;;;;;;4995380;28;20517;-76
2023/04/21 12:35:38;;;;;;;3.00;2.70;;;18.20;66.20;;;;;;4995920;28;21009;-76
2023/04/21 12:38:05;;;;;;;2.90;2.60;;;18.30;65.20;;;;;;4995805;28;20873;-75
2023/04/21 12:40:32;;;;;;;2.93;2.63;;;18.30;65.10;;;;;;4995424;28;20457;-76
2023/04/21 12:42:59;;;;;;;2.87;2.47;;;18.20;63.70;;;;;;4996454;28;20552;-77
2023/04/21 12:45:27;;;;;;;2.47;2.00;;;18.40;63.50;;;;;;4995956;28;20900;-76
2023/04/21 12:47:54;;;;;;;2.23;2.00;;;18.60;63.60;;;;;;4995659;28;20838;-76
2023/04/21 12:50:21;;;;;;;3.27;2.20;;;18.60;62.60;;;;;;4995816;28;20468;-76
2023/04/21 12:52:50;;;;;;;2.30;2.00;;;18.70;62.30;;;;;;4995543;28;20453;-77
2023/04/21 12:55:17;;;;;;;2.40;1.83;;;18.60;60.90;;;;;;4994964;28;20485;-76
2023/04/21 12:57:44;;;;;;;2.63;1.70;;;18.70;62.00;;;;;;4995497;28;20966;-76
2023/04/21 13:00:13;;;;;;;2.40;1.70;;;18.90;61.40;;;;;;5000031;28;20465;-77
2023/04/21 13:02:42;;;;;;;2.10;1.40;;;19.20;59.00;;;;;;5002499;28;20483;-77
2023/04/21 13:05:10;;;;;;;2.10;1.60;;;19.30;59.60;;;;;;4997281;28;20453;-77
2023/04/21 13:07:37;;;;;;;2.40;1.80;;;19.30;60.50;;;;;;4995319;28;20461;-77
2023/04/21 13:10:05;;;;;;;2.20;1.60;;;19.40;61.10;;;;;;4995451;28;20460;-77
2023/04/21 13:12:32;;;;;;;2.00;1.20;;;19.80;59.60;;;;;;4994476;28;20856;-77
2023/04/21 13:14:59;;;;;;;2.27;1.70;;;19.70;58.60;;;;;;4995360;28;20485;-77
2023/04/21 13:17:26;;;;;;;3.10;1.77;;;19.50;59.60;;;;;;4995930;28;20864;-76
2023/04/21 13:19:54;;;;;;;2.03;1.50;;;19.50;58.50;;;;;;4994910;28;20496;-76
2023/04/21 13:22:20;;;;;;;2.40;1.60;;;19.10;58.30;;;;;;4994970;28;20458;-77
2023/04/21 13:24:47;;;;;;;2.00;1.47;;;19.40;60.10;;;;;;4995570;28;21013;-77
2023/04/21 13:27:14;;;;;;;2.17;1.77;;;19.60;58.70;;;;;;4995553;28;20480;-78
2023/04/21 13:29:40;;;;;;;2.20;1.40;;;19.80;59.50;;;;;;4995865;28;20947;-76
2023/04/21 13:32:07;;;;;;;1.93;1.47;;;20.00;59.80;;;;;;4996898;28;20469;-77
2023/04/21 13:34:34;;;;;;;2.60;1.60;;;20.30;58.40;;;;;;4996585;28;20956;-77
2023/04/21 13:37:02;;;;;;;2.73;1.80;;;20.60;57.20;;;;;;4996376;28;20453;-76
2023/04/21 13:39:29;;;;;;;2.10;1.30;;;20.70;57.00;;;;;;4995033;28;20450;-76
2023/04/21 13:41:56;;;;;;;2.20;1.40;;;20.60;57.00;;;;;;4994202;28;20470;-74
2023/04/21 13:44:23;;;;;;;2.10;1.37;;;20.60;55.90;;;;;;4995005;28;20544;-76
2023/04/21 13:46:50;;;;;;;2.30;1.80;;;20.90;57.40;;;;;;4994089;28;20947;-76
2023/04/21 13:49:17;;;;;;;2.00;1.67;;;20.70;55.30;;;;;;4994127;28;20453;-75
2023/04/21 13:51:44;;;;;;;2.07;1.67;;;20.20;54.90;;;;;;4993750;28;20461;-76
2023/04/21 13:54:12;;;;;;;2.83;1.53;;;20.30;56.30;;;;;;4994339;28;20445;-77
2023/04/21 13:56:38;;;;;;;2.10;1.40;;;20.20;56.30;;;;;;4994310;28;21006;-76
2023/04/21 13:59:06;;;;;;;2.30;1.53;;;20.60;55.40;;;;;;4995141;28;20805;-78
2023/04/21 14:01:32;;;;;;;2.00;1.40;;;20.80;54.20;;;;;;4996565;28;21057;-77
2023/04/21 14:03:59;;;;;;;2.03;1.57;;;20.90;55.70;;;;;;4993622;28;20445;-76
2023/04/21 14:06:26;;;;;;;1.93;1.40;;;20.80;54.40;;;;;;4995255;28;20939;-76
2023/04/21 14:08:54;;;;;;;1.90;1.23;;;21.10;54.80;;;;;;4997502;28;20460;-76
2023/04/21 14:11:22;;;;;;;2.10;1.40;;;21.30;54.50;;;;;;4997457;28;20472;-77
2023/04/21 14:13:49;;;;;;;1.90;1.30;;;21.40;53.60;;;;;;4998207;28;20473;-76
2023/04/21 14:16:15;;;;;;;2.00;1.20;;;21.20;54.40;;;;;;4997265;28;21077;-76
2023/04/21 14:18:44;;;;;;;2.00;1.50;;;21.10;55.20;;;;;;4997384;28;20449;-76
2023/04/21 14:21:10;;;;;;;2.53;2.03;;;20.90;55.10;;;;;;4997618;28;20464;-76
2023/04/21 14:23:37;;;;;;;1.90;1.30;;;20.80;55.70;;;;;;4998014;28;20460;-77
2023/04/21 14:26:07;;;;;;;1.80;1.10;;;20.80;55.70;;;;;;4997956;28;20445;-76
2023/04/21 14:28:36;;;;;;;1.80;1.20;;;21.00;55.60;;;;;;4997955;28;20509;-77
2023/04/21 14:31:03;;;;;;;1.90;1.10;;;21.10;55.20;;;;;;4998619;28;20564;-76
2023/04/21 14:33:30;;;;;;;2.33;1.40;;;21.20;54.00;;;;;;4999121;28;20515;-77
2023/04/21 14:35:56;;;;;;;1.80;1.10;;;21.20;54.50;;;;;;4999373;28;20605;-77
2023/04/21 14:38:24;;;;;;;2.10;1.30;;;21.20;54.50;;;;;;4998756;28;20453;-76
2023/04/21 14:40:53;;;;;;;1.90;1.40;;;21.10;53.40;;;;;;4999356;28;20503;-77
2023/04/21 14:43:19;;;;;;;2.10;1.50;;;20.90;54.10;;;;;;5002476;28;20802;-77
2023/04/21 14:45:48;;;;;;;1.90;1.20;;;20.80;54.00;;;;;;5004974;28;20788;-76
2023/04/21 14:48:15;;;;;;;1.90;1.20;;;21.10;54.60;;;;;;4998919;28;20528;-76
2023/04/21 14:50:41;;;;;;;2.30;1.40;;;21.50;52.70;;;;;;5002586;28;20484;-76
2023/04/21 14:53:08;;;;;;;1.80;1.20;;;21.70;52.10;;;;;;5020906;28;20430;-76
2023/04/21 14:55:35;;;;;;;2.23;1.43;;;22.20;51.70;;;;;;5020934;28;20604;-77
2023/04/21 14:58:01;;;;;;;2.10;1.30;;;22.70;51.00;;;;;;5020297;28;20464;-77
2023/04/21 15:00:30;;;;;;;1.97;1.23;;;23.20;50.10;;;;;;4998542;28;20457;-78
2023/04/21 15:02:58;;;;;;;2.10;1.27;;;23.80;49.20;;;;;;4997638;28;20872;-76
2023/04/21 15:05:25;;;;;;;2.30;1.60;;;24.60;48.00;;;;;;4999508;28;20819;-76
2023/04/21 15:07:51;;;;;;;1.80;1.13;;;24.40;47.70;;;;;;5001176;28;20504;-77
2023/04/21 15:10:18;;;;;;;2.20;1.53;;;24.10;49.10;;;;;;4999960;28;20453;-77
2023/04/21 15:12:45;;;;;;;1.90;1.10;;;23.80;49.20;;;;;;4999449;28;20461;-76
2023/04/21 15:15:12;;;;;;;1.93;1.33;;;23.50;50.00;;;;;;5000286;28;20445;-76
2023/04/21 15:17:38;;;;;;;1.90;1.30;;;23.10;51.30;;;;;;4997256;28;20454;-76
2023/04/21 15:20:08;;;;;;;2.00;1.17;;;22.40;52.00;;;;;;4997361;28;20457;-75
2023/04/21 15:22:35;;;;;;;1.80;1.13;;;21.70;53.50;;;;;;4997350;28;20476;-75
2023/04/21 15:25:02;;;;;;;2.20;1.20;;;21.50;54.60;;;;;;4995582;28;20950;-76
2023/04/21 15:27:29;;;;;;;2.47;1.33;;;21.30;55.20;;;;;;4995903;28;20441;-76
2023/04/21 15:29:56;;;;;;;2.00;1.27;;;21.30;55.40;;;;;;4995450;28;20445;-76
2023/04/21 15:32:22;;;;;;;2.83;1.77;;;21.40;55.30;;;;;;4995412;28;20465;-76
2023/04/21 15:34:49;;;;;;;2.20;1.40;;;21.40;55.80;;;;;;4995371;28;20449;-76
2023/04/21 15:37:18;;;;;;;2.10;1.27;;;21.10;56.20;;;;;;4995264;28;20481;-76
2023/04/21 15:39:45;;;;;;;1.90;1.00;;;21.00;56.60;;;;;;4995076;28;20931;-76
2023/04/21 15:42:12;;;;;;;1.90;1.27;;;21.10;56.70;;;;;;4995011;28;20979;-76
2023/04/21 15:44:38;;;;;;;2.40;1.37;;;20.70;57.20;;;;;;4995643;28;20461;-75
2023/04/21 15:47:05;;;;;;;1.90;1.23;;;20.60;57.90;;;;;;4995247;28;20442;-76
2023/04/21 15:49:32;;;;;;;1.93;1.40;;;20.50;58.20;;;;;;4996203;28;20756;-76
2023/04/21 15:51:59;;;;;;;2.90;1.47;;;20.40;58.80;;;;;;4995121;28;20473;-76
2023/04/21 15:54:27;;;;;;;2.13;1.57;;;20.50;59.10;;;;;;4994985;28;20485;-76
2023/04/21 15:56:54;;;;;;;1.83;1.23;;;20.30;59.40;;;;;;4994985;28;20481;-76
2023/04/21 15:59:21;;;;;;;1.90;1.20;;;20.50;59.10;;;;;;4994699;28;20484;-76
2023/04/21 16:01:47;;;;;;;3.10;1.43;;;20.30;58.80;;;;;;4994822;28;20920;-77
2023/04/21 16:04:15;;;;;;;1.90;1.20;;;20.10;59.50;;;;;;4994863;28;20457;-76
2023/04/21 16:06:41;;;;;;;2.20;1.20;;;20.10;60.00;;;;;;4994899;28;20441;-76
2023/04/21 16:09:09;;;;;;;2.20;1.40;;;20.10;60.30;;;;;;4994535;28;20445;-77
2023/04/21 16:11:37;;;;;;;2.53;1.40;;;20.10;60.20;;;;;;4994682;28;20468;-77
2023/04/21 16:14:04;;;;;;;2.20;1.60;;;20.00;60.70;;;;;;5019357;23;20516;-73
2023/04/21 16:16:31;;;;;;;1.90;1.20;;;20.00;60.40;;;;;;4996032;28;20528;-72
2023/04/21 16:18:58;;;;;;;1.90;1.33;;;20.00;60.50;;;;;;4996492;28;20965;-73
2023/04/21 16:21:25;;;;;;;3.60;1.40;;;20.10;60.60;;;;;;4996538;28;20876;-72
2023/04/21 16:23:51;;;;;;;1.90;1.20;;;20.00;60.60;;;;;;4996307;28;20473;-72
2023/04/21 16:26:18;;;;;;;2.00;1.40;;;19.70;60.90;;;;;;4996745;28;20477;-73
2023/04/21 16:28:46;;;;;;;2.53;1.67;;;19.70;61.80;;;;;;4997373;28;20871;-73
2023/04/21 16:31:13;;;;;;;2.00;1.50;;;19.90;62.70;;;;;;4995684;28;20453;-72
2023/04/21 16:33:39;;;;;;;2.00;1.17;;;20.00;63.30;;;;;;4996990;28;20885;-73
2023/04/21 16:36:06;;;;;;;2.33;1.83;;;20.00;63.60;;;;;;4997193;28;20485;-74
2023/04/21 16:38:33;;;;;;;2.30;1.87;;;19.90;63.00;;;;;;4996426;28;20481;-73
2023/04/21 16:41:00;;;;;;;2.10;1.40;;;19.90;62.90;;;;;;4995584;28;20500;-73
2023/04/21 16:43:26;;;;;;;1.93;1.23;;;20.00;63.40;;;;;;4995678;28;20469;-73
2023/04/21 16:45:55;;;;;;;2.57;1.30;;;20.10;63.10;;;;;;4994886;28;20851;-73
2023/04/21 16:48:21;;;;;;;1.90;1.37;;;20.20;63.00;;;;;;4995189;28;20815;-72
2023/04/21 16:50:48;;;;;;;2.50;1.20;;;20.30;62.30;;;;;;4995333;28;20892;-74
2023/04/21 16:53:15;;;;;;;1.93;1.40;;;20.20;62.60;;;;;;4994624;28;20557;-71